Time;durP1;ratioP1;P1;durP2;ratioP2;P2;SDS_P1;SDS_P2;PMS_P1;PMS_P2;Temp;Humidity;BMP_temperature;BMP_pressure;BME280_temperature;BME280_humidity;BME280_pressure;Samples;Min_cycle;Max_cycle;Signal;HPM_P1;HPM_P2
2021/08/25 00:02:10;;;;;;;;;;;;;;;;;;5012699;28;21474;-73
2021/08/25 00:04:37;;;;;;;;;;;;;;;;;;5012831;28;19933;-71
2021/08/25 00:07:06;;;;;;;;;;;;;;;;;;5016853;28;19931;-71
2021/08/25 00:09:33;;;;;;;;;;;;;;;;;;5014751;28;19933;-72
2021/08/25 00:12:00;;;;;;;;;;;;;;;;;;5015904;28;20389;-72
2021/08/25 00:14:27;;;;;;;;;;;;;;;;;;5016980;28;19933;-70
2021/08/25 00:16:54;;;;;;;;;;;;;;;;;;5014114;28;20301;-71
2021/08/25 00:19:21;;;;;;;;;;;;;;;;;;5019620;28;19929;-72
2021/08/25 00:21:48;;;;;;;;;;;;;;;;;;5015159;28;19929;-73
2021/08/25 00:24:15;;;;;;;;;;;;;;;;;;5015126;28;19925;-73
2021/08/25 00:26:46;;;;;;;;;;;;;;;;;;5014778;28;19973;-71
2021/08/25 00:29:13;;;;;;;;;;;;;;;;;;5022317;28;20019;-72
2021/08/25 00:31:40;;;;;;;;;;;;;;;;;;5021676;28;20385;-71
2021/08/25 00:34:07;;;;;;;;;;;;;;;;;;5022511;28;20016;-72
2021/08/25 00:36:34;;;;;;;;;;;;;;;;;;5028192;28;19925;-71
2021/08/25 00:39:01;;;;;;;;;;;;;;;;;;5022453;28;19935;-72
2021/08/25 00:41:28;;;;;;;;;;;;;;;;;;5021213;28;19933;-72
2021/08/25 00:43:55;;;;;;;;;;;;;;;;;;5029992;28;19932;-71
2021/08/25 00:46:22;;;;;;;;;;;;;;;;;;5027321;28;20435;-72
2021/08/25 00:48:49;;;;;;;;;;;;;;;;;;5014342;28;19932;-72
2021/08/25 00:51:15;;;;;;;;;;;;;;;;;;5023731;28;19932;-71
2021/08/25 00:53:42;;;;;;;;;;;;;;;;;;5028969;28;20298;-71
2021/08/25 00:56:09;;;;;;;;;;;;;;;;;;5027116;28;19925;-71
2021/08/25 00:58:36;;;;;;;;;;;;;;;;;;5028198;28;19934;-71
2021/08/25 01:01:08;;;;;;;;;;;;;;;;;;5012209;28;20285;-72
2021/08/25 01:03:35;;;;;;;;;;;;;;;;;;5015235;28;19926;-73
2021/08/25 01:06:02;;;;;;;;;;;;;;;;;;5017068;28;20014;-72
2021/08/25 01:08:29;;;;;;;;;;;;;;;;;;5017643;28;19932;-71
2021/08/25 01:10:56;;;;;;;;;;;;;;;;;;5016503;28;19976;-72
2021/08/25 01:13:23;;;;;;;;;;;;;;;;;;5015142;28;19988;-70
2021/08/25 01:15:50;;;;;;;;;;;;;;;;;;5016971;28;19979;-71
2021/08/25 01:18:17;;;;;;;;;;;;;;;;;;5019904;28;20286;-71
2021/08/25 01:20:44;;;;;;;;;;;;;;;;;;5011512;28;19933;-71
2021/08/25 01:23:11;;;;;;;;;;;;;;;;;;5017007;28;19933;-70
2021/08/25 01:25:38;;;;;;;;;;;;;;;;;;5012685;28;19933;-71
2021/08/25 01:28:05;;;;;;;;;;;;;;;;;;5017178;28;19925;-71
2021/08/25 01:30:32;;;;;;;;;;;;;;;;;;5015322;28;20472;-72
2021/08/25 01:32:59;;;;;;;;;;;;;;;;;;5017352;28;20397;-72
2021/08/25 01:35:26;;;;;;;;;;;;;;;;;;5016534;28;20393;-74
2021/08/25 01:37:53;;;;;;;;;;;;;;;;;;5019885;28;20400;-73
2021/08/25 01:40:20;;;;;;;;;;;;;;;;;;5024495;28;19945;-72
2021/08/25 01:42:49;;;;;;;;;;;;;;;;;;5027988;28;20282;-72
2021/08/25 01:45:16;;;;;;;;;;;;;;;;;;5029951;28;20677;-72
2021/08/25 01:47:43;;;;;;;;;;;;;;;;;;5029619;28;20401;-72
2021/08/25 01:50:09;;;;;;;;;;;;;;;;;;5028609;28;20468;-72
2021/08/25 01:52:36;;;;;;;;;;;;;;;;;;5032845;28;19925;-72
2021/08/25 01:55:03;;;;;;;;;;;;;;;;;;5028186;28;19933;-72
2021/08/25 01:57:30;;;;;;;;;;;;;;;;;;5021932;28;19933;-73
2021/08/25 01:59:57;;;;;;;;;;;;;;;;;;5029302;28;19925;-72
2021/08/25 02:02:24;;;;;;;;;;;;;;;;;;5026749;28;20294;-72
2021/08/25 02:04:51;;;;;;;;;;;;;;;;;;5031858;28;19933;-71
2021/08/25 02:07:18;;;;;;;;;;;;;;;;;;5018049;28;19929;-72
2021/08/25 02:09:45;;;;;;;;;;;;;;;;;;5027155;28;21037;-72
2021/08/25 02:12:12;;;;;;;;;;;;;;;;;;5017561;28;19933;-72
2021/08/25 02:14:39;;;;;;;;;;;;;;;;;;5018674;28;19932;-71
2021/08/25 02:17:07;;;;;;;;;;;;;;;;;;5013758;28;19929;-72
2021/08/25 02:19:34;;;;;;;;;;;;;;;;;;5016666;28;21067;-72
2021/08/25 02:22:01;;;;;;;;;;;;;;;;;;5017926;28;19945;-74
2021/08/25 02:24:28;;;;;;;;;;;;;;;;;;5018222;28;19929;-72
2021/08/25 02:26:54;;;;;;;;;;;;;;;;;;5015799;28;19929;-72
2021/08/25 02:29:21;;;;;;;;;;;;;;;;;;5017589;28;19933;-72
2021/08/25 02:31:48;;;;;;;;;;;;;;;;;;5017044;28;19933;-72
2021/08/25 02:34:15;;;;;;;;;;;;;;;;;;5019648;28;20005;-72
2021/08/25 02:36:42;;;;;;;;;;;;;;;;;;5015379;28;19936;-73
2021/08/25 02:39:09;;;;;;;;;;;;;;;;;;5016051;28;19948;-71
2021/08/25 02:41:36;;;;;;;;;;;;;;;;;;5019832;28;19951;-71
2021/08/25 02:44:03;;;;;;;;;;;;;;;;;;5018264;28;19929;-71
2021/08/25 02:46:30;;;;;;;;;;;;;;;;;;5017786;28;19933;-72
2021/08/25 02:48:57;;;;;;;;;;;;;;;;;;5027277;28;19931;-72
2021/08/25 02:51:24;;;;;;;;;;;;;;;;;;5020689;28;19929;-72
2021/08/25 02:53:51;;;;;;;;;;;;;;;;;;5015008;28;19929;-72
2021/08/25 02:56:18;;;;;;;;;;;;;;;;;;5014437;28;20448;-72
2021/08/25 02:58:45;;;;;;;;;;;;;;;;;;5020276;28;19939;-72
2021/08/25 03:01:12;;;;;;;;;;;;;;;;;;5022110;28;20377;-72
2021/08/25 03:03:39;;;;;;;;;;;;;;;;;;5031784;28;19948;-73
2021/08/25 03:06:06;;;;;;;;;;;;;;;;;;5029773;28;19931;-72
2021/08/25 03:08:33;;;;;;;;;;;;;;;;;;5018511;28;19933;-72
2021/08/25 03:11:00;;;;;;;;;;;;;;;;;;5017219;28;19936;-72
2021/08/25 03:13:27;;;;;;;;;;;;;;;;;;5026838;28;20044;-72
2021/08/25 03:15:54;;;;;;;;;;;;;;;;;;5026458;28;19925;-73
2021/08/25 03:18:21;;;;;;;;;;;;;;;;;;5015131;28;20037;-72
2021/08/25 03:20:48;;;;;;;;;;;;;;;;;;5026342;28;20020;-72
2021/08/25 03:23:15;;;;;;;;;;;;;;;;;;5019152;28;20576;-72
2021/08/25 03:25:42;;;;;;;;;;;;;;;;;;5017727;28;19940;-71
2021/08/25 03:28:09;;;;;;;;;;;;;;;;;;5015412;28;19936;-71
2021/08/25 03:30:36;;;;;;;;;;;;;;;;;;5016651;28;19933;-71
2021/08/25 03:33:03;;;;;;;;;;;;;;;;;;5015992;28;20598;-71
2021/08/25 03:35:30;;;;;;;;;;;;;;;;;;5014498;28;20160;-72
2021/08/25 03:37:57;;;;;;;;;;;;;;;;;;5017205;28;20260;-72
2021/08/25 03:40:24;;;;;;;;;;;;;;;;;;5017407;28;19925;-71
2021/08/25 03:42:51;;;;;;;;;;;;;;;;;;5032851;22;19933;-68
2021/08/25 03:45:17;;;;;;;;;;;;;;;;;;5016102;28;19925;-67
2021/08/25 03:47:44;;;;;;;;;;;;;;;;;;5018395;28;19933;-67
2021/08/25 03:50:11;;;;;;;;;;;;;;;;;;5013414;28;19933;-67
2021/08/25 03:52:38;;;;;;;;;;;;;;;;;;5015345;28;19933;-68
2021/08/25 03:55:05;;;;;;;;;;;;;;;;;;5012634;28;19925;-67
2021/08/25 03:57:32;;;;;;;;;;;;;;;;;;5018339;28;19933;-68
2021/08/25 03:59:59;;;;;;;;;;;;;;;;;;5026020;28;20107;-67
2021/08/25 04:02:26;;;;;;;;;;;;;;;;;;5027560;28;19925;-67
2021/08/25 04:04:53;;;;;;;;;;;;;;;;;;5023052;28;19925;-67
2021/08/25 04:07:20;;;;;;;;;;;;;;;;;;5026770;28;19925;-67
2021/08/25 04:09:47;;;;;;;;;;;;;;;;;;5015240;28;19936;-67
2021/08/25 04:12:14;;;;;;;;;;;;;;;;;;5016547;28;20383;-68
2021/08/25 04:14:41;;;;;;;;;;;;;;;;;;5017674;28;19932;-67
2021/08/25 04:17:08;;;;;;;;;;;;;;;;;;5022265;28;19925;-67
2021/08/25 04:19:35;;;;;;;;;;;;;;;;;;5015563;28;19933;-67
2021/08/25 04:22:02;;;;;;;;;;;;;;;;;;5015070;28;20412;-67
2021/08/25 04:24:29;;;;;;;;;;;;;;;;;;5016709;28;19965;-66
2021/08/25 04:26:56;;;;;;;;;;;;;;;;;;5019982;28;20404;-67
2021/08/25 04:29:23;;;;;;;;;;;;;;;;;;5026078;28;19931;-67
2021/08/25 04:31:50;;;;;;;;;;;;;;;;;;5024634;28;19937;-67
2021/08/25 04:34:17;;;;;;;;;;;;;;;;;;5017052;28;19929;-67
2021/08/25 04:36:44;;;;;;;;;;;;;;;;;;5013744;28;20425;-67
2021/08/25 04:39:11;;;;;;;;;;;;;;;;;;5013976;28;20320;-67
2021/08/25 04:41:38;;;;;;;;;;;;;;;;;;5013890;28;19940;-67
2021/08/25 04:44:05;;;;;;;;;;;;;;;;;;5013124;28;19939;-67
2021/08/25 04:46:32;;;;;;;;;;;;;;;;;;5016085;28;19929;-68
2021/08/25 04:48:59;;;;;;;;;;;;;;;;;;5013813;28;20028;-68
2021/08/25 04:51:26;;;;;;;;;;;;;;;;;;5013100;28;19936;-68
2021/08/25 04:53:53;;;;;;;;;;;;;;;;;;5019990;28;19939;-68
2021/08/25 04:56:20;;;;;;;;;;;;;;;;;;5016675;28;20294;-68
2021/08/25 04:58:47;;;;;;;;;;;;;;;;;;5014336;28;19925;-68
2021/08/25 05:01:14;;;;;;;;;;;;;;;;;;5015589;28;19925;-67
2021/08/25 05:03:41;;;;;;;;;;;;;;;;;;5034607;28;20401;-68
2021/08/25 05:06:08;;;;;;;;;;;;;;;;;;5030934;28;20282;-68
2021/08/25 05:08:35;;;;;;;;;;;;;;;;;;5033128;28;19925;-68
2021/08/25 05:11:02;;;;;;;;;;;;;;;;;;5031705;28;19925;-68
2021/08/25 05:13:29;;;;;;;;;;;;;;;;;;5025888;28;20377;-68
2021/08/25 05:15:56;;;;;;;;;;;;;;;;;;5032799;28;19947;-68
2021/08/25 05:18:23;;;;;;;;;;;;;;;;;;5032113;28;19942;-68
2021/08/25 05:20:50;;;;;;;;;;;;;;;;;;5033985;28;19929;-68
2021/08/25 05:23:17;;;;;;;;;;;;;;;;;;5029930;28;20288;-69
2021/08/25 05:25:44;;;;;;;;;;;;;;;;;;5032773;28;19925;-68
2021/08/25 05:28:11;;;;;;;;;;;;;;;;;;5033847;28;19932;-67
2021/08/25 05:30:38;;;;;;;;;;;;;;;;;;5034214;28;19929;-69
2021/08/25 05:33:05;;;;;;;;;;;;;;;;;;5034823;28;19925;-68
2021/08/25 05:35:32;;;;;;;;;;;;;;;;;;5034059;28;19925;-67
2021/08/25 05:37:59;;;;;;;;;;;;;;;;;;5028545;28;20392;-67
2021/08/25 05:40:26;;;;;;;;;;;;;;;;;;5032145;28;19933;-68
2021/08/25 05:42:53;;;;;;;;;;;;;;;;;;5033775;28;20363;-71
2021/08/25 05:45:20;;;;;;;;;;;;;;;;;;5029249;28;19929;-68
2021/08/25 05:47:47;;;;;;;;;;;;;;;;;;5031341;28;20373;-67
2021/08/25 05:50:14;;;;;;;;;;;;;;;;;;5028583;28;19931;-65
2021/08/25 05:52:41;;;;;;;;;;;;;;;;;;5025696;28;20289;-66
2021/08/25 05:55:08;;;;;;;;;;;;;;;;;;5030517;28;19948;-68
2021/08/25 05:57:35;;;;;;;;;;;;;;;;;;5032918;28;19932;-67
2021/08/25 06:00:02;;;;;;;;;;;;;;;;;;5032891;28;19925;-65
2021/08/25 06:02:29;;;;;;;;;;;;;;;;;;5028852;28;19931;-66
2021/08/25 06:04:56;;;;;;;;;;;;;;;;;;5027600;28;20593;-63
2021/08/25 06:07:23;;;;;;;;;;;;;;;;;;5033174;28;19925;-64
2021/08/25 06:09:50;;;;;;;;;;;;;;;;;;5029531;28;19925;-64
2021/08/25 06:12:17;;;;;;;;;;;;;;;;;;5028951;28;19933;-64
2021/08/25 06:14:44;;;;;;;;;;;;;;;;;;5027813;28;20451;-64
2021/08/25 06:17:11;;;;;;;;;;;;;;;;;;5030105;28;19984;-64
2021/08/25 06:19:38;;;;;;;;;;;;;;;;;;5028494;28;19929;-65
2021/08/25 06:22:05;;;;;;;;;;;;;;;;;;5027164;28;19952;-65
2021/08/25 06:24:32;;;;;;;;;;;;;;;;;;5026507;28;20308;-65
2021/08/25 06:27:01;;;;;;;;;;;;;;;;;;5030133;28;19932;-66
2021/08/25 06:29:28;;;;;;;;;;;;;;;;;;5031563;28;20378;-65
2021/08/25 06:31:55;;;;;;;;;;;;;;;;;;5029369;28;19926;-66
2021/08/25 06:34:22;;;;;;;;;;;;;;;;;;5025213;28;19925;-67
2021/08/25 06:36:49;;;;;;;;;;;;;;;;;;5022067;28;19937;-66
2021/08/25 06:39:16;;;;;;;;;;;;;;;;;;5027775;28;19929;-65
2021/08/25 06:41:43;;;;;;;;;;;;;;;;;;5025870;28;20019;-65
2021/08/25 06:44:10;;;;;;;;;;;;;;;;;;5028496;28;20385;-65
2021/08/25 06:46:37;;;;;;;;;;;;;;;;;;5025594;28;19933;-66
2021/08/25 06:49:04;;;;;;;;;;;;;;;;;;5028716;28;19943;-66
2021/08/25 06:51:31;;;;;;;;;;;;;;;;;;5021708;28;19932;-66
2021/08/25 06:53:57;;;;;;;;;;;;;;;;;;5025402;28;19948;-66
2021/08/25 06:56:24;;;;;;;;;;;;;;;;;;5028354;28;19926;-66
2021/08/25 06:58:51;;;;;;;;;;;;;;;;;;5029219;28;19933;-66
2021/08/25 07:01:18;;;;;;;;;;;;;;;;;;5027989;28;20313;-66
2021/08/25 07:03:45;;;;;;;;;;;;;;;;;;5026260;28;19925;-66
2021/08/25 07:06:12;;;;;;;;;;;;;;;;;;5029764;28;20023;-67
2021/08/25 07:08:40;;;;;;;;;;;;;;;;;;5028090;28;20105;-66
2021/08/25 07:11:07;;;;;;;;;;;;;;;;;;5028424;28;20285;-67
2021/08/25 07:13:35;;;;;;;;;;;;;;;;;;5027397;28;19930;-67
2021/08/25 07:16:02;;;;;;;;;;;;;;;;;;5026920;28;19929;-67
2021/08/25 07:18:29;;;;;;;;;;;;;;;;;;5027501;28;20010;-67
2021/08/25 07:20:55;;;;;;;;;;;;;;;;;;5024515;28;20443;-67
2021/08/25 07:23:22;;;;;;;;;;;;;;;;;;5027614;28;19933;-65
2021/08/25 07:25:49;;;;;;;;;;;;;;;;;;5025114;28;20398;-65
2021/08/25 07:28:16;;;;;;;;;;;;;;;;;;5029607;28;19925;-65
2021/08/25 07:30:43;;;;;;;;;;;;;;;;;;5026599;28;19939;-66
2021/08/25 07:33:13;;;;;;;;;;;;;;;;;;5029357;28;19939;-67
2021/08/25 07:35:40;;;;;;;;;;;;;;;;;;5024336;28;19931;-67
2021/08/25 07:38:07;;;;;;;;;;;;;;;;;;5027272;28;19925;-67
2021/08/25 07:40:34;;;;;;;;;;;;;;;;;;5029138;28;19925;-67
2021/08/25 07:43:01;;;;;;;;;;;;;;;;;;5021358;28;20416;-67
2021/08/25 07:45:28;;;;;;;;;;;;;;;;;;5026783;28;19936;-67
2021/08/25 07:47:55;;;;;;;;;;;;;;;;;;5027300;28;19925;-67
2021/08/25 07:50:22;;;;;;;;;;;;;;;;;;5027058;28;19929;-67
2021/08/25 07:52:48;;;;;;;;;;;;;;;;;;5028552;28;19925;-67
2021/08/25 07:55:15;;;;;;;;;;;;;;;;;;5026406;28;20312;-67
2021/08/25 07:57:42;;;;;;;;;;;;;;;;;;5026282;28;19929;-67
2021/08/25 08:00:09;;;;;;;;;;;;;;;;;;5026647;28;19964;-67
2021/08/25 08:02:36;;;;;;;;;;;;;;;;;;5028858;28;19932;-67
2021/08/25 08:05:03;;;;;;;;;;;;;;;;;;5026628;28;19932;-67
2021/08/25 08:07:30;;;;;;;;;;;;;;;;;;5028462;28;20014;-67
2021/08/25 08:09:57;;;;;;;;;;;;;;;;;;5028850;28;19925;-66
2021/08/25 08:12:24;;;;;;;;;;;;;;;;;;5028960;28;19931;-67
2021/08/25 08:14:51;;;;;;;;;;;;;;;;;;5028633;28;19947;-67
2021/08/25 08:17:21;;;;;;;;;;;;;;;;;;5028723;28;19979;-66
2021/08/25 08:19:48;;;;;;;;;;;;;;;;;;5026426;28;19925;-67
2021/08/25 08:22:15;;;;;;;;;;;;;;;;;;5028625;28;20020;-67
2021/08/25 08:24:42;;;;;;;;;;;;;;;;;;5020853;28;19929;-66
2021/08/25 08:27:09;;;;;;;;;;;;;;;;;;5030312;28;19925;-66
2021/08/25 08:29:36;;;;;;;;;;;;;;;;;;5028486;28;19933;-66
2021/08/25 08:32:03;;;;;;;;;;;;;;;;;;5029175;28;20024;-67
2021/08/25 08:34:30;;;;;;;;;;;;;;;;;;5022218;28;20497;-67
2021/08/25 08:36:57;;;;;;;;;;;;;;;;;;5019883;28;19926;-67
2021/08/25 08:39:24;;;;;;;;;;;;;;;;;;5023288;28;20305;-66
2021/08/25 08:41:50;;;;;;;;;;;;;;;;;;5024297;28;20008;-67
2021/08/25 08:44:17;;;;;;;;;;;;;;;;;;5025556;28;19926;-67
2021/08/25 08:46:44;;;;;;;;;;;;;;;;;;5022876;28;19932;-67
2021/08/25 08:49:11;;;;;;;;;;;;;;;;;;5028344;28;19925;-67
2021/08/25 08:51:39;;;;;;;;;;;;;;;;;;5028817;28;19925;-66
2021/08/25 08:54:05;;;;;;;;;;;;;;;;;;5024911;28;19929;-68
2021/08/25 08:56:32;;;;;;;;;;;;;;;;;;5027887;28;19929;-68
2021/08/25 08:59:00;;;;;;;;;;;;;;;;;;5027302;28;20281;-68
2021/08/25 09:01:27;;;;;;;;;;;;;;;;;;5024135;28;19929;-68
2021/08/25 09:03:54;;;;;;;;;;;;;;;;;;5024328;28;20013;-67
2021/08/25 09:06:21;;;;;;;;;;;;;;;;;;5025987;28;19926;-66
2021/08/25 09:08:48;;;;;;;;;;;;;;;;;;5024247;28;20285;-66
2021/08/25 09:11:15;;;;;;;;;;;;;;;;;;5026423;28;20393;-66
2021/08/25 09:13:42;;;;;;;;;;;;;;;;;;5031081;28;20499;-66
2021/08/25 09:16:08;;;;;;;;;;;;;;;;;;5023295;28;19926;-66
2021/08/25 09:18:36;;;;;;;;;;;;;;;;;;5026947;28;19925;-66
2021/08/25 09:21:03;;;;;;;;;;;;;;;;;;5024559;28;19990;-66
2021/08/25 09:23:30;;;;;;;;;;;;;;;;;;5022769;28;20297;-67
2021/08/25 09:25:57;;;;;;;;;;;;;;;;;;5024727;28;19932;-67
2021/08/25 09:28:24;;;;;;;;;;;;;;;;;;5026733;28;19929;-66
2021/08/25 09:30:51;;;;;;;;;;;;;;;;;;5025359;28;19925;-66
2021/08/25 09:33:18;;;;;;;;;;;;;;;;;;5028015;28;19925;-66
2021/08/25 09:35:45;;;;;;;;;;;;;;;;;;5020488;28;19926;-65
2021/08/25 09:38:12;;;;;;;;;;;;;;;;;;5028674;28;19979;-66
2021/08/25 09:40:39;;;;;;;;;;;;;;;;;;5027716;28;19958;-65
2021/08/25 09:43:06;;;;;;;;;;;;;;;;;;5039468;22;19948;-67
2021/08/25 09:45:33;;;;;;;;;;;;;;;;;;5028315;28;19925;-66
2021/08/25 09:48:00;;;;;;;;;;;;;;;;;;5023969;28;19932;-68
2021/08/25 09:50:27;;;;;;;;;;;;;;;;;;5028197;28;20293;-67
2021/08/25 09:52:54;;;;;;;;;;;;;;;;;;5029544;28;19925;-67
2021/08/25 09:55:21;;;;;;;;;;;;;;;;;;5030790;28;19927;-66
2021/08/25 09:57:48;;;;;;;;;;;;;;;;;;5029719;28;19929;-66
2021/08/25 10:00:15;;;;;;;;;;;;;;;;;;5022235;28;20386;-66
2021/08/25 10:02:42;;;;;;;;;;;;;;;;;;5030653;28;19935;-66
2021/08/25 10:05:09;;;;;;;;;;;;;;;;;;5030363;28;19999;-66
2021/08/25 10:07:36;;;;;;;;;;;;;;;;;;5029395;28;20013;-67
2021/08/25 10:10:03;;;;;;;;;;;;;;;;;;5031215;28;20384;-67
2021/08/25 10:12:30;;;;;;;;;;;;;;;;;;5030686;28;19932;-67
2021/08/25 10:14:56;;;;;;;;;;;;;;;;;;5024842;28;19925;-65
2021/08/25 10:17:23;;;;;;;;;;;;;;;;;;5030641;28;19932;-66
2021/08/25 10:19:50;;;;;;;;;;;;;;;;;;5027736;28;19932;-66
2021/08/25 10:22:17;;;;;;;;;;;;;;;;;;5029823;28;19925;-66
2021/08/25 10:24:44;;;;;;;;;;;;;;;;;;5029652;28;19925;-66
2021/08/25 10:27:14;;;;;;;;;;;;;;;;;;5029750;28;19933;-65
2021/08/25 10:29:41;;;;;;;;;;;;;;;;;;5030802;28;19925;-66
2021/08/25 10:32:08;;;;;;;;;;;;;;;;;;5027998;28;20586;-67
2021/08/25 10:34:38;;;;;;;;;;;;;;;;;;5032609;28;20258;-67
2021/08/25 10:37:05;;;;;;;;;;;;;;;;;;5030759;28;19933;-66
2021/08/25 10:39:32;;;;;;;;;;;;;;;;;;5030463;28;19972;-66
2021/08/25 10:41:59;;;;;;;;;;;;;;;;;;5026052;28;19935;-66
2021/08/25 10:44:26;;;;;;;;;;;;;;;;;;5029666;28;20301;-66
2021/08/25 10:46:53;;;;;;;;;;;;;;;;;;5028942;28;19933;-66
2021/08/25 10:49:20;;;;;;;;;;;;;;;;;;5029158;28;19925;-67
2021/08/25 10:51:47;;;;;;;;;;;;;;;;;;5027112;28;20645;-66
2021/08/25 10:54:15;;;;;;;;;;;;;;;;;;5029513;28;19925;-67
2021/08/25 10:56:42;;;;;;;;;;;;;;;;;;5029201;28;19983;-67
2021/08/25 10:59:09;;;;;;;;;;;;;;;;;;5020263;28;20278;-66
2021/08/25 11:01:36;;;;;;;;;;;;;;;;;;5027642;28;19994;-66
2021/08/25 11:04:03;;;;;;;;;;;;;;;;;;5030515;28;20028;-66
2021/08/25 11:06:30;;;;;;;;;;;;;;;;;;5030945;28;20003;-66
2021/08/25 11:08:57;;;;;;;;;;;;;;;;;;5029807;28;19925;-67
2021/08/25 11:11:24;;;;;;;;;;;;;;;;;;5030787;28;20020;-66
2021/08/25 11:13:51;;;;;;;;;;;;;;;;;;5029081;28;19925;-66
2021/08/25 11:16:18;;;;;;;;;;;;;;;;;;5027257;28;20408;-66
2021/08/25 11:18:45;;;;;;;;;;;;;;;;;;5032616;28;19925;-66
2021/08/25 11:21:12;;;;;;;;;;;;;;;;;;5028621;28;19931;-66
2021/08/25 11:23:39;;;;;;;;;;;;;;;;;;5030641;28;20300;-67
2021/08/25 11:26:06;;;;;;;;;;;;;;;;;;5032747;28;19925;-68
2021/08/25 11:28:33;;;;;;;;;;;;;;;;;;5027365;28;19928;-68
2021/08/25 11:31:00;;;;;;;;;;;;;;;;;;5027730;28;19929;-67
2021/08/25 11:33:27;;;;;;;;;;;;;;;;;;5021730;28;19933;-67
2021/08/25 11:35:54;;;;;;;;;;;;;;;;;;5030400;28;19932;-68
2021/08/25 11:38:20;;;;;;;;;;;;;;;;;;5020824;28;19933;-66
2021/08/25 11:40:47;;;;;;;;;;;;;;;;;;5020168;28;20305;-66
2021/08/25 11:43:14;;;;;;;;;;;;;;;;;;5020172;28;20290;-66
2021/08/25 11:45:41;;;;;;;;;;;;;;;;;;5022889;28;19925;-67
2021/08/25 11:48:08;;;;;;;;;;;;;;;;;;5015782;28;19933;-66
2021/08/25 11:50:35;;;;;;;;;;;;;;;;;;5020163;28;19929;-68
2021/08/25 11:53:02;;;;;;;;;;;;;;;;;;5019874;28;19939;-67
2021/08/25 11:55:29;;;;;;;;;;;;;;;;;;5027590;28;19925;-67
2021/08/25 11:57:56;;;;;;;;;;;;;;;;;;5021313;28;19931;-67
2021/08/25 12:00:23;;;;;;;;;;;;;;;;;;5017976;28;19933;-67
2021/08/25 12:02:50;;;;;;;;;;;;;;;;;;5020555;28;19925;-66
2021/08/25 12:05:17;;;;;;;;;;;;;;;;;;5020267;28;19932;-67
2021/08/25 12:07:44;;;;;;;;;;;;;;;;;;5021468;28;20452;-67
2021/08/25 12:10:11;;;;;;;;;;;;;;;;;;5021983;28;19939;-67
2021/08/25 12:12:38;;;;;;;;;;;;;;;;;;5021745;28;19932;-67
2021/08/25 12:15:05;;;;;;;;;;;;;;;;;;5021203;28;19929;-66
2021/08/25 12:17:32;;;;;;;;;;;;;;;;;;5018269;28;19933;-67
2021/08/25 12:19:59;;;;;;;;;;;;;;;;;;5020980;28;19992;-68
2021/08/25 12:22:26;;;;;;;;;;;;;;;;;;5019212;28;19931;-66
2021/08/25 12:24:53;;;;;;;;;;;;;;;;;;5025124;28;19929;-67
2021/08/25 12:27:20;;;;;;;;;;;;;;;;;;5024004;28;20325;-66
2021/08/25 12:29:47;;;;;;;;;;;;;;;;;;5023469;28;20016;-68
2021/08/25 12:32:14;;;;;;;;;;;;;;;;;;5018917;28;19939;-66
2021/08/25 12:34:41;;;;;;;;;;;;;;;;;;5023735;28;19931;-66
2021/08/25 12:37:07;;;;;;;;;;;;;;;;;;5024712;28;19925;-66
2021/08/25 12:39:40;;;;;;;;;;;;;;;;;;5018577;28;20235;-66
2021/08/25 12:42:07;;;;;;;;;;;;;;;;;;5016108;28;21097;-68
2021/08/25 12:44:34;;;;;;;;;;;;;;;;;;5021435;28;19929;-66
2021/08/25 12:47:01;;;;;;;;;;;;;;;;;;5025707;28;20200;-68
2021/08/25 12:49:28;;;;;;;;;;;;;;;;;;5014655;28;20618;-65
2021/08/25 12:51:55;;;;;;;;;;;;;;;;;;5022275;28;19940;-67
2021/08/25 12:54:21;;;;;;;;;;;;;;;;;;5021326;28;19925;-67
2021/08/25 12:56:49;;;;;;;;;;;;;;;;;;5020360;28;19926;-68
2021/08/25 12:59:16;;;;;;;;;;;;;;;;;;5018860;28;19971;-66
2021/08/25 13:01:43;;;;;;;;;;;;;;;;;;5018406;28;20026;-66
2021/08/25 13:04:10;;;;;;;;;;;;;;;;;;5018884;28;19932;-68
2021/08/25 13:06:37;;;;;;;;;;;;;;;;;;5019835;28;19964;-68
2021/08/25 13:09:04;;;;;;;;;;;;;;;;;;5020303;28;19937;-66
2021/08/25 13:11:33;;;;;;;;;;;;;;;;;;5021973;28;19932;-66
2021/08/25 13:14:00;;;;;;;;;;;;;;;;;;5023925;28;19967;-66
2021/08/25 13:16:27;;;;;;;;;;;;;;;;;;5019375;28;19936;-67
2021/08/25 13:18:54;;;;;;;;;;;;;;;;;;5024971;28;19925;-67
2021/08/25 13:21:21;;;;;;;;;;;;;;;;;;5022365;28;20036;-66
2021/08/25 13:23:48;;;;;;;;;;;;;;;;;;5021315;28;19936;-66
2021/08/25 13:26:17;;;;;;;;;;;;;;;;;;5025190;28;20056;-66
2021/08/25 13:28:44;;;;;;;;;;;;;;;;;;5026761;28;20012;-67
2021/08/25 13:31:11;;;;;;;;;;;;;;;;;;5022088;28;20031;-68
2021/08/25 13:33:39;;;;;;;;;;;;;;;;;;5026223;28;19925;-65
2021/08/25 13:36:06;;;;;;;;;;;;;;;;;;5021037;28;19931;-66
2021/08/25 13:38:33;;;;;;;;;;;;;;;;;;5024100;28;20414;-68
2021/08/25 13:41:00;;;;;;;;;;;;;;;;;;5022797;28;19932;-67
2021/08/25 13:43:27;;;;;;;;;;;;;;;;;;5023645;28;19940;-68
2021/08/25 13:45:54;;;;;;;;;;;;;;;;;;5027228;28;20360;-67
2021/08/25 13:48:21;;;;;;;;;;;;;;;;;;5031899;28;19947;-67
2021/08/25 13:50:47;;;;;;;;;;;;;;;;;;5032220;28;19935;-67
2021/08/25 13:53:15;;;;;;;;;;;;;;;;;;5033068;28;19925;-69
2021/08/25 13:55:42;;;;;;;;;;;;;;;;;;5027249;28;19925;-68
2021/08/25 13:58:09;;;;;;;;;;;;;;;;;;5024609;28;19940;-68
2021/08/25 14:00:36;;;;;;;;;;;;;;;;;;5029065;28;19933;-66
2021/08/25 14:03:03;;;;;;;;;;;;;;;;;;5021636;28;19929;-69
2021/08/25 14:05:30;;;;;;;;;;;;;;;;;;5030430;28;20385;-66
2021/08/25 14:07:57;;;;;;;;;;;;;;;;;;5025131;28;19925;-67
2021/08/25 14:10:24;;;;;;;;;;;;;;;;;;5027177;28;19925;-67
2021/08/25 14:12:51;;;;;;;;;;;;;;;;;;5025824;28;19933;-67
2021/08/25 14:15:18;;;;;;;;;;;;;;;;;;5024250;28;20301;-67
2021/08/25 14:17:45;;;;;;;;;;;;;;;;;;5029259;28;19948;-67
2021/08/25 14:20:14;;;;;;;;;;;;;;;;;;5033610;28;19932;-67
2021/08/25 14:22:41;;;;;;;;;;;;;;;;;;5027930;28;19925;-66
2021/08/25 14:25:07;;;;;;;;;;;;;;;;;;5023506;28;20320;-67
2021/08/25 14:27:34;;;;;;;;;;;;;;;;;;5023287;28;19929;-67
2021/08/25 14:30:01;;;;;;;;;;;;;;;;;;5026640;28;19964;-67
2021/08/25 14:32:28;;;;;;;;;;;;;;;;;;5023482;28;19931;-66
2021/08/25 14:34:55;;;;;;;;;;;;;;;;;;5027399;28;19932;-68
2021/08/25 14:37:22;;;;;;;;;;;;;;;;;;5026464;28;20023;-69
2021/08/25 14:39:49;;;;;;;;;;;;;;;;;;5026442;28;20668;-66
2021/08/25 14:42:16;;;;;;;;;;;;;;;;;;5026908;28;20004;-67
2021/08/25 14:44:43;;;;;;;;;;;;;;;;;;5024987;28;19925;-68
2021/08/25 14:47:10;;;;;;;;;;;;;;;;;;5030993;28;20378;-66
2021/08/25 14:49:37;;;;;;;;;;;;;;;;;;5028260;28;19926;-67
2021/08/25 14:52:04;;;;;;;;;;;;;;;;;;5023052;28;19933;-68
2021/08/25 14:54:31;;;;;;;;;;;;;;;;;;5026361;28;19925;-67
2021/08/25 14:56:58;;;;;;;;;;;;;;;;;;5027975;28;20008;-66
2021/08/25 14:59:25;;;;;;;;;;;;;;;;;;5020918;28;19933;-67
2021/08/25 15:01:52;;;;;;;;;;;;;;;;;;5028475;28;19937;-66
2021/08/25 15:04:19;;;;;;;;;;;;;;;;;;5025901;28;19929;-68
2021/08/25 15:06:46;;;;;;;;;;;;;;;;;;5026984;28;20300;-67
2021/08/25 15:09:13;;;;;;;;;;;;;;;;;;5026451;28;20385;-68
2021/08/25 15:11:41;;;;;;;;;;;;;;;;;;5028049;28;19988;-68
2021/08/25 15:14:08;;;;;;;;;;;;;;;;;;5024653;28;20428;-67
2021/08/25 15:16:35;;;;;;;;;;;;;;;;;;5024530;28;19929;-67
2021/08/25 15:19:02;;;;;;;;;;;;;;;;;;5024710;28;19926;-67
2021/08/25 15:21:29;;;;;;;;;;;;;;;;;;5024088;28;19924;-67
2021/08/25 15:23:56;;;;;;;;;;;;;;;;;;5023072;28;19940;-66
2021/08/25 15:26:23;;;;;;;;;;;;;;;;;;5027046;28;19929;-66
2021/08/25 15:28:50;;;;;;;;;;;;;;;;;;5024659;28;19929;-67
2021/08/25 15:31:17;;;;;;;;;;;;;;;;;;5026050;28;19933;-67
2021/08/25 15:33:44;;;;;;;;;;;;;;;;;;5025889;28;19929;-67
2021/08/25 15:36:13;;;;;;;;;;;;;;;;;;5024989;28;19931;-66
2021/08/25 15:38:40;;;;;;;;;;;;;;;;;;5025632;28;19929;-66
2021/08/25 15:41:10;;;;;;;;;;;;;;;;;;5027414;28;19936;-65
2021/08/25 15:43:37;;;;;;;;;;;;;;;;;;5029097;22;19925;-68
2021/08/25 15:46:06;;;;;;;;;;;;;;;;;;5008557;28;19925;-68
2021/08/25 15:48:33;;;;;;;;;;;;;;;;;;5006642;28;20032;-68
2021/08/25 15:51:00;;;;;;;;;;;;;;;;;;5008274;28;19987;-67
2021/08/25 15:53:27;;;;;;;;;;;;;;;;;;4989366;28;19980;-67
2021/08/25 15:55:54;;;;;;;;;;;;;;;;;;4989332;28;19925;-67
2021/08/25 15:58:21;;;;;;;;;;;;;;;;;;4985382;28;20183;-67
2021/08/25 16:00:48;;;;;;;;;;;;;;;;;;4985082;28;19957;-68
2021/08/25 16:03:14;;;;;;;;;;;;;;;;;;4979945;28;20298;-66
2021/08/25 16:05:41;;;;;;;;;;;;;;;;;;4982533;28;19925;-66
2021/08/25 16:08:09;;;;;;;;;;;;;;;;;;4982604;28;19926;-64
2021/08/25 16:10:36;;;;;;;;;;;;;;;;;;4985092;28;19930;-67
2021/08/25 16:13:03;;;;;;;;;;;;;;;;;;4987512;28;19929;-68
2021/08/25 16:15:30;;;;;;;;;;;;;;;;;;4988636;28;19932;-68
2021/08/25 16:17:56;;;;;;;;;;;;;;;;;;4987411;28;20297;-67
2021/08/25 16:20:23;;;;;;;;;;;;;;;;;;4985029;28;19925;-65
2021/08/25 16:22:50;;;;;;;;;;;;;;;;;;4984316;28;20394;-68
2021/08/25 16:25:19;;;;;;;;;;;;;;;;;;4982458;28;19940;-67
2021/08/25 16:27:46;;;;;;;;;;;;;;;;;;4990346;28;19925;-68
2021/08/25 16:30:13;;;;;;;;;;;;;;;;;;4983669;28;19932;-68
2021/08/25 16:32:40;;;;;;;;;;;;;;;;;;4983409;28;19973;-67
2021/08/25 16:35:07;;;;;;;;;;;;;;;;;;4980972;28;19941;-65
2021/08/25 16:37:34;;;;;;;;;;;;;;;;;;4987108;28;19941;-67
2021/08/25 16:40:04;;;;;;;;;;;;;;;;;;4981759;28;19933;-68
2021/08/25 16:42:34;;;;;;;;;;;;;;;;;;4982778;28;20310;-67
2021/08/25 16:45:01;;;;;;;;;;;;;;;;;;4979148;28;19940;-69